This is the latest recevied weather packets stored in our database for station/object NY3Q. If no packets are shown the sender has not sent any weather packets the latest 10 day(s).
| Time | Temp. | Humidity | Pressure | Rain* | Wind** | Luminosity | Snow |
|---|---|---|---|---|---|---|---|
| 1777925040 | 25.56° C | 49% | 1016.8 hPa | 0 mm | - | 531 W/m² | - |
| 1777924737 | 25.56° C | 49% | 1016.9 hPa | 0 mm | - | 540 W/m² | - |
| 1777924432 | 26.11° C | 47% | 1017.1 hPa | 0 mm | - | 550 W/m² | - |
| 1777924129 | 25.56° C | 46% | 1016.9 hPa | 0 mm | - | 558 W/m² | - |
| 1777923825 | 25° C | 48% | 1016.9 hPa | 0 mm | - | 565 W/m² | - |
| 1777923521 | 25.56° C | 47% | 1017.1 hPa | 0 mm | - | 572 W/m² | - |
| 1777923218 | 25° C | 49% | 1017.3 hPa | 0 mm | - | 580 W/m² | - |
| 1777922917 | 25.56° C | 47% | 1017.3 hPa | 0 mm | - | 589 W/m² | - |
| 1777922615 | 25.56° C | 48% | 1017.4 hPa | 0 mm | - | 594 W/m² | - |
| 1777922313 | 25° C | 47% | 1017.3 hPa | 0 mm | - | 601 W/m² | - |
| 1777922010 | 25° C | 47% | 1017.5 hPa | 0 mm | - | 607 W/m² | - |
| 1777921705 | 25.56° C | 45% | 1017.5 hPa | 0 mm | - | 613 W/m² | - |
| 1777921402 | 25° C | 46% | 1017.4 hPa | 0 mm | - | 619 W/m² | - |
| 1777921099 | 25° C | 45% | 1017.4 hPa | 0 mm | - | 626 W/m² | - |
| 1777920796 | 25.56° C | 45% | 1017.7 hPa | 0 mm | - | 631 W/m² | - |
| 1777920492 | 25.56° C | 44% | 1017.9 hPa | 0 mm | - | 636 W/m² | - |
| 1777920188 | 25.56° C | 44% | 1017.8 hPa | 0 mm | - | 637 W/m² | - |
| 1777919883 | 26.11° C | 44% | 1017.8 hPa | 0 mm | - | 643 W/m² | - |
| 1777919580 | 25.56° C | 44% | 1018.1 hPa | 0 mm | - | 646 W/m² | - |
| 1777919279 | 25.56° C | 45% | 1018 hPa | 0 mm | - | 649 W/m² | - |
| 1777918975 | 26.67° C | 42% | 1018 hPa | 0 mm | - | 652 W/m² | - |
| 1777918673 | 26.11° C | 43% | 1017.9 hPa | 0 mm | - | 656 W/m² | - |
| 1777918370 | 25.56° C | 46% | 1018.1 hPa | 0 mm | - | 658 W/m² | - |
| 1777918069 | 26.67° C | 42% | 1017.9 hPa | 0 mm | - | 660 W/m² | - |
| 1777917767 | 25.56° C | 44% | 1018 hPa | 0 mm | - | 664 W/m² | - |
* Rain latest hour (hover to see other rain measurements)
** Current wind speed in m/s (hover to see current wind gust speed)